sensor_id;sensor_type;location;lat;lon;timestamp;temperature;humidity
22212;DHT22;11275;52.488;13.462;2022-09-12T00:01:29;16.30;99.90
22212;DHT22;11275;52.488;13.462;2022-09-12T00:03:58;16.40;99.90
22212;DHT22;11275;52.488;13.462;2022-09-12T00:06:30;16.30;99.90
22212;DHT22;11275;52.488;13.462;2022-09-12T00:09:02;16.30;99.90
22212;DHT22;11275;52.488;13.462;2022-09-12T00:11:28;16.30;99.90
22212;DHT22;11275;52.488;13.462;2022-09-12T00:13:56;16.30;99.90
22212;DHT22;11275;52.488;13.462;2022-09-12T00:16:24;16.20;99.90
22212;DHT22;11275;52.488;13.462;2022-09-12T00:18:51;16.20;99.90
22212;DHT22;11275;52.488;13.462;2022-09-12T00:21:18;16.10;99.90
22212;DHT22;11275;52.488;13.462;2022-09-12T00:23:44;16.10;99.90
22212;DHT22;11275;52.488;13.462;2022-09-12T00:26:10;16.10;99.90
22212;DHT22;11275;52.488;13.462;2022-09-12T00:28:37;16.10;99.90
22212;DHT22;11275;52.488;13.462;2022-09-12T00:31:15;16.00;99.90
22212;DHT22;11275;52.488;13.462;2022-09-12T00:33:42;16.00;99.90
22212;DHT22;11275;52.488;13.462;2022-09-12T00:36:11;16.00;99.90
22212;DHT22;11275;52.488;13.462;2022-09-12T00:38:38;15.90;99.90
22212;DHT22;11275;52.488;13.462;2022-09-12T00:41:09;15.90;99.90
22212;DHT22;11275;52.488;13.462;2022-09-12T00:43:45;15.80;99.90
22212;DHT22;11275;52.488;13.462;2022-09-12T00:49:02;15.80;99.90
22212;DHT22;11275;52.488;13.462;2022-09-12T00:51:32;15.80;99.90
22212;DHT22;11275;52.488;13.462;2022-09-12T00:53:59;15.70;99.90
22212;DHT22;11275;52.488;13.462;2022-09-12T00:56:27;15.70;99.90
22212;DHT22;11275;52.488;13.462;2022-09-12T00:59:04;15.70;99.90
22212;DHT22;11275;52.488;13.462;2022-09-12T01:01:33;15.80;99.90
22212;DHT22;11275;52.488;13.462;2022-09-12T01:04:00;15.70;99.90
22212;DHT22;11275;52.488;13.462;2022-09-12T01:06:29;15.80;99.90
22212;DHT22;11275;52.488;13.462;2022-09-12T01:08:57;15.80;99.90
22212;DHT22;11275;52.488;13.462;2022-09-12T01:11:23;15.70;99.90
22212;DHT22;11275;52.488;13.462;2022-09-12T01:13:49;15.70;99.90
22212;DHT22;11275;52.488;13.462;2022-09-12T01:16:15;15.70;99.90
22212;DHT22;11275;52.488;13.462;2022-09-12T01:18:56;15.60;99.90
22212;DHT22;11275;52.488;13.462;2022-09-12T01:24:50;15.60;99.90
22212;DHT22;11275;52.488;13.462;2022-09-12T01:30:00;15.50;99.90
22212;DHT22;11275;52.488;13.462;2022-09-12T01:33:00;15.50;99.90
22212;DHT22;11275;52.488;13.462;2022-09-12T01:38:33;15.50;99.90
22212;DHT22;11275;52.488;13.462;2022-09-12T01:44:08;15.50;99.90
22212;DHT22;11275;52.488;13.462;2022-09-12T01:50:00;15.50;99.90
22212;DHT22;11275;52.488;13.462;2022-09-12T01:52:42;15.50;99.90
22212;DHT22;11275;52.488;13.462;2022-09-12T01:55:23;15.40;99.90
22212;DHT22;11275;52.488;13.462;2022-09-12T01:58:06;15.40;99.90
22212;DHT22;11275;52.488;13.462;2022-09-12T02:00:34;15.30;99.90
22212;DHT22;11275;52.488;13.462;2022-09-12T02:03:14;15.30;99.90
22212;DHT22;11275;52.488;13.462;2022-09-12T02:05:52;15.30;99.90
22212;DHT22;11275;52.488;13.462;2022-09-12T02:08:34;15.30;99.90
22212;DHT22;11275;52.488;13.462;2022-09-12T02:11:06;15.30;99.90
22212;DHT22;11275;52.488;13.462;2022-09-12T02:16:16;15.20;99.90
22212;DHT22;11275;52.488;13.462;2022-09-12T02:18:45;15.20;99.90
22212;DHT22;11275;52.488;13.462;2022-09-12T02:21:16;15.10;99.90
22212;DHT22;11275;52.488;13.462;2022-09-12T02:23:46;15.10;99.90
22212;DHT22;11275;52.488;13.462;2022-09-12T02:26:22;15.20;99.90
22212;DHT22;11275;52.488;13.462;2022-09-12T02:28:48;15.20;99.90
22212;DHT22;11275;52.488;13.462;2022-09-12T02:31:38;15.10;99.90
22212;DHT22;11275;52.488;13.462;2022-09-12T02:37:19;15.10;99.90
22212;DHT22;11275;52.488;13.462;2022-09-12T02:39:54;15.10;99.90
22212;DHT22;11275;52.488;13.462;2022-09-12T02:42:22;15.10;99.90
22212;DHT22;11275;52.488;13.462;2022-09-12T02:44:48;15.10;99.90
22212;DHT22;11275;52.488;13.462;2022-09-12T02:50:05;15.10;99.90
22212;DHT22;11275;52.488;13.462;2022-09-12T02:52:32;15.10;99.90
22212;DHT22;11275;52.488;13.462;2022-09-12T02:54:58;15.10;99.90
22212;DHT22;11275;52.488;13.462;2022-09-12T02:57:25;15.10;99.90
22212;DHT22;11275;52.488;13.462;2022-09-12T02:59:53;15.10;99.90
22212;DHT22;11275;52.488;13.462;2022-09-12T03:05:26;15.20;99.90
22212;DHT22;11275;52.488;13.462;2022-09-12T03:08:35;15.10;99.90
22212;DHT22;11275;52.488;13.462;2022-09-12T03:19:51;14.90;99.90
22212;DHT22;11275;52.488;13.462;2022-09-12T03:22:32;14.90;99.90
22212;DHT22;11275;52.488;13.462;2022-09-12T03:27:53;14.90;99.90
22212;DHT22;11275;52.488;13.462;2022-09-12T03:30:21;14.80;99.90
22212;DHT22;11275;52.488;13.462;2022-09-12T03:32:50;14.80;99.90
22212;DHT22;11275;52.488;13.462;2022-09-12T03:35:18;14.80;99.90
22212;DHT22;11275;52.488;13.462;2022-09-12T03:37:44;14.80;99.90
22212;DHT22;11275;52.488;13.462;2022-09-12T03:40:11;14.80;99.90
22212;DHT22;11275;52.488;13.462;2022-09-12T03:42:37;14.80;99.90
22212;DHT22;11275;52.488;13.462;2022-09-12T03:45:04;14.80;99.90
22212;DHT22;11275;52.488;13.462;2022-09-12T03:47:30;14.80;99.90
22212;DHT22;11275;52.488;13.462;2022-09-12T03:49:56;14.80;99.90
22212;DHT22;11275;52.488;13.462;2022-09-12T03:52:21;14.70;99.90
22212;DHT22;11275;52.488;13.462;2022-09-12T03:54:47;14.80;99.90
22212;DHT22;11275;52.488;13.462;2022-09-12T03:57:13;14.80;99.90
22212;DHT22;11275;52.488;13.462;2022-09-12T03:59:39;14.80;99.90
22212;DHT22;11275;52.488;13.462;2022-09-12T04:02:04;14.70;99.90
22212;DHT22;11275;52.488;13.462;2022-09-12T04:04:31;14.70;99.90
22212;DHT22;11275;52.488;13.462;2022-09-12T04:06:56;14.70;99.90
22212;DHT22;11275;52.488;13.462;2022-09-12T04:09:22;14.70;99.90
22212;DHT22;11275;52.488;13.462;2022-09-12T04:11:48;14.70;99.90
22212;DHT22;11275;52.488;13.462;2022-09-12T04:14:13;14.70;99.90
22212;DHT22;11275;52.488;13.462;2022-09-12T04:16:40;14.70;99.90
22212;DHT22;11275;52.488;13.462;2022-09-12T04:19:05;14.70;99.90
22212;DHT22;11275;52.488;13.462;2022-09-12T04:21:31;14.70;99.90
22212;DHT22;11275;52.488;13.462;2022-09-12T04:23:56;14.60;99.90
22212;DHT22;11275;52.488;13.462;2022-09-12T04:26:22;14.60;99.90
22212;DHT22;11275;52.488;13.462;2022-09-12T04:28:52;14.70;99.90
22212;DHT22;11275;52.488;13.462;2022-09-12T04:31:18;14.70;99.90
22212;DHT22;11275;52.488;13.462;2022-09-12T04:33:45;14.70;99.90
22212;DHT22;11275;52.488;13.462;2022-09-12T04:36:14;14.70;99.90
22212;DHT22;11275;52.488;13.462;2022-09-12T04:38:44;14.70;99.90
22212;DHT22;11275;52.488;13.462;2022-09-12T04:41:21;14.70;99.90
22212;DHT22;11275;52.488;13.462;2022-09-12T04:43:51;14.70;99.90
22212;DHT22;11275;52.488;13.462;2022-09-12T04:46:17;14.70;99.90
22212;DHT22;11275;52.488;13.462;2022-09-12T04:48:47;14.70;99.90
22212;DHT22;11275;52.488;13.462;2022-09-12T04:51:18;14.70;99.90
22212;DHT22;11275;52.488;13.462;2022-09-12T04:53:48;14.70;99.90
22212;DHT22;11275;52.488;13.462;2022-09-12T04:56:14;14.70;99.90
22212;DHT22;11275;52.488;13.462;2022-09-12T04:58:39;14.80;99.90
22212;DHT22;11275;52.488;13.462;2022-09-12T05:01:11;14.80;99.90
22212;DHT22;11275;52.488;13.462;2022-09-12T05:03:39;14.80;99.90
22212;DHT22;11275;52.488;13.462;2022-09-12T05:06:06;14.80;99.90
22212;DHT22;11275;52.488;13.462;2022-09-12T05:08:33;14.80;99.90
22212;DHT22;11275;52.488;13.462;2022-09-12T05:11:04;14.80;99.90
22212;DHT22;11275;52.488;13.462;2022-09-12T05:13:30;14.80;99.90
22212;DHT22;11275;52.488;13.462;2022-09-12T05:15:58;14.80;99.90
22212;DHT22;11275;52.488;13.462;2022-09-12T05:18:25;14.80;99.90
22212;DHT22;11275;52.488;13.462;2022-09-12T05:20:52;14.80;99.90
22212;DHT22;11275;52.488;13.462;2022-09-12T05:23:18;14.80;99.90
22212;DHT22;11275;52.488;13.462;2022-09-12T05:25:48;14.80;99.90
22212;DHT22;11275;52.488;13.462;2022-09-12T05:28:15;14.80;99.90
22212;DHT22;11275;52.488;13.462;2022-09-12T05:30:40;14.80;99.90
22212;DHT22;11275;52.488;13.462;2022-09-12T05:33:06;14.80;99.90
22212;DHT22;11275;52.488;13.462;2022-09-12T05:35:35;14.80;99.90
22212;DHT22;11275;52.488;13.462;2022-09-12T05:38:03;14.80;99.90
22212;DHT22;11275;52.488;13.462;2022-09-12T05:40:29;14.90;99.90
22212;DHT22;11275;52.488;13.462;2022-09-12T05:42:58;14.90;99.90
22212;DHT22;11275;52.488;13.462;2022-09-12T05:45:24;14.80;99.90
22212;DHT22;11275;52.488;13.462;2022-09-12T05:47:52;14.90;99.90
22212;DHT22;11275;52.488;13.462;2022-09-12T05:50:19;14.90;99.90
22212;DHT22;11275;52.488;13.462;2022-09-12T05:52:48;14.90;99.90
22212;DHT22;11275;52.488;13.462;2022-09-12T05:55:14;15.00;99.90
22212;DHT22;11275;52.488;13.462;2022-09-12T05:57:43;15.00;99.90
22212;DHT22;11275;52.488;13.462;2022-09-12T06:00:14;15.00;99.90
22212;DHT22;11275;52.488;13.462;2022-09-12T06:02:40;15.10;99.90
22212;DHT22;11275;52.488;13.462;2022-09-12T06:05:06;15.00;99.90
22212;DHT22;11275;52.488;13.462;2022-09-12T06:07:35;15.10;99.90
22212;DHT22;11275;52.488;13.462;2022-09-12T06:10:01;15.20;99.90
22212;DHT22;11275;52.488;13.462;2022-09-12T06:12:32;15.20;99.90
22212;DHT22;11275;52.488;13.462;2022-09-12T06:14:58;15.20;99.90
22212;DHT22;11275;52.488;13.462;2022-09-12T06:17:24;15.20;99.90
22212;DHT22;11275;52.488;13.462;2022-09-12T06:19:52;15.30;99.90
22212;DHT22;11275;52.488;13.462;2022-09-12T06:22:22;15.30;99.90
22212;DHT22;11275;52.488;13.462;2022-09-12T06:24:48;15.30;99.90
22212;DHT22;11275;52.488;13.462;2022-09-12T06:27:17;15.30;99.90
22212;DHT22;11275;52.488;13.462;2022-09-12T06:29:46;15.40;99.90
22212;DHT22;11275;52.488;13.462;2022-09-12T06:32:18;15.40;99.90
22212;DHT22;11275;52.488;13.462;2022-09-12T06:34:44;15.40;99.90
22212;DHT22;11275;52.488;13.462;2022-09-12T06:37:13;15.50;99.90
22212;DHT22;11275;52.488;13.462;2022-09-12T06:39:39;15.50;99.90
22212;DHT22;11275;52.488;13.462;2022-09-12T06:42:10;15.50;99.90
22212;DHT22;11275;52.488;13.462;2022-09-12T06:44:39;15.60;99.90
22212;DHT22;11275;52.488;13.462;2022-09-12T06:47:05;15.50;99.90
22212;DHT22;11275;52.488;13.462;2022-09-12T06:49:37;15.50;99.90
22212;DHT22;11275;52.488;13.462;2022-09-12T06:52:03;15.60;99.90
22212;DHT22;11275;52.488;13.462;2022-09-12T06:54:29;15.60;99.90
22212;DHT22;11275;52.488;13.462;2022-09-12T06:56:58;15.70;99.90
22212;DHT22;11275;52.488;13.462;2022-09-12T06:59:27;15.80;99.90
22212;DHT22;11275;52.488;13.462;2022-09-12T07:01:56;15.80;99.90
22212;DHT22;11275;52.488;13.462;2022-09-12T07:04:27;15.90;99.90
22212;DHT22;11275;52.488;13.462;2022-09-12T07:06:53;16.00;99.90
22212;DHT22;11275;52.488;13.462;2022-09-12T07:09:19;16.00;99.90
22212;DHT22;11275;52.488;13.462;2022-09-12T07:11:45;16.00;99.90
22212;DHT22;11275;52.488;13.462;2022-09-12T07:14:14;16.00;99.90
22212;DHT22;11275;52.488;13.462;2022-09-12T07:16:40;16.00;99.90
22212;DHT22;11275;52.488;13.462;2022-09-12T07:19:06;16.00;99.90
22212;DHT22;11275;52.488;13.462;2022-09-12T07:21:32;16.10;99.90
22212;DHT22;11275;52.488;13.462;2022-09-12T07:24:03;16.10;99.90
22212;DHT22;11275;52.488;13.462;2022-09-12T07:26:29;16.10;99.90
22212;DHT22;11275;52.488;13.462;2022-09-12T07:28:56;16.10;99.90
22212;DHT22;11275;52.488;13.462;2022-09-12T07:31:23;16.10;99.90
22212;DHT22;11275;52.488;13.462;2022-09-12T07:33:50;16.20;99.90
22212;DHT22;11275;52.488;13.462;2022-09-12T07:36:18;16.30;99.90
22212;DHT22;11275;52.488;13.462;2022-09-12T07:38:52;16.40;99.90
22212;DHT22;11275;52.488;13.462;2022-09-12T07:41:19;16.40;99.90
22212;DHT22;11275;52.488;13.462;2022-09-12T07:43:46;16.40;99.90
22212;DHT22;11275;52.488;13.462;2022-09-12T07:46:13;16.50;99.90
22212;DHT22;11275;52.488;13.462;2022-09-12T07:48:39;16.50;99.90
22212;DHT22;11275;52.488;13.462;2022-09-12T07:51:09;16.50;99.90
22212;DHT22;11275;52.488;13.462;2022-09-12T07:53:38;16.60;99.90
22212;DHT22;11275;52.488;13.462;2022-09-12T07:56:07;16.70;99.90
22212;DHT22;11275;52.488;13.462;2022-09-12T07:58:36;16.70;99.90
22212;DHT22;11275;52.488;13.462;2022-09-12T08:01:06;16.80;99.90
22212;DHT22;11275;52.488;13.462;2022-09-12T08:03:36;16.90;99.90
22212;DHT22;11275;52.488;13.462;2022-09-12T08:06:07;16.90;99.90
22212;DHT22;11275;52.488;13.462;2022-09-12T08:08:36;16.80;99.90
22212;DHT22;11275;52.488;13.462;2022-09-12T08:11:14;16.80;99.90
22212;DHT22;11275;52.488;13.462;2022-09-12T08:13:43;16.90;99.90
22212;DHT22;11275;52.488;13.462;2022-09-12T08:16:18;16.90;99.90
22212;DHT22;11275;52.488;13.462;2022-09-12T08:18:50;17.10;99.90
22212;DHT22;11275;52.488;13.462;2022-09-12T08:21:30;17.00;99.90
22212;DHT22;11275;52.488;13.462;2022-09-12T08:24:06;17.00;99.90
22212;DHT22;11275;52.488;13.462;2022-09-12T08:26:37;17.00;99.90
22212;DHT22;11275;52.488;13.462;2022-09-12T08:29:19;17.10;99.90
22212;DHT22;11275;52.488;13.462;2022-09-12T08:32:02;17.10;99.90
22212;DHT22;11275;52.488;13.462;2022-09-12T08:34:28;17.20;99.90
22212;DHT22;11275;52.488;13.462;2022-09-12T08:37:01;17.30;99.90
22212;DHT22;11275;52.488;13.462;2022-09-12T08:39:33;17.50;99.90
22212;DHT22;11275;52.488;13.462;2022-09-12T08:42:04;17.50;99.90
22212;DHT22;11275;52.488;13.462;2022-09-12T08:49:56;17.80;99.90
22212;DHT22;11275;52.488;13.462;2022-09-12T08:55:35;18.00;99.90
22212;DHT22;11275;52.488;13.462;2022-09-12T08:58:16;18.10;99.90
22212;DHT22;11275;52.488;13.462;2022-09-12T09:18:14;18.20;99.90
22212;DHT22;11275;52.488;13.462;2022-09-12T09:21:18;18.30;99.90
22212;DHT22;11275;52.488;13.462;2022-09-12T09:24:20;18.50;99.90
22212;DHT22;11275;52.488;13.462;2022-09-12T09:30:00;18.50;99.90
22212;DHT22;11275;52.488;13.462;2022-09-12T09:32:40;18.50;99.90
22212;DHT22;11275;52.488;13.462;2022-09-12T09:35:47;18.30;99.90
22212;DHT22;11275;52.488;13.462;2022-09-12T09:38:23;18.20;99.90
22212;DHT22;11275;52.488;13.462;2022-09-12T09:43:26;18.40;99.90
22212;DHT22;11275;52.488;13.462;2022-09-12T09:46:02;18.40;99.90
22212;DHT22;11275;52.488;13.462;2022-09-12T09:48:48;18.60;99.90
22212;DHT22;11275;52.488;13.462;2022-09-12T09:51:24;18.60;99.90
22212;DHT22;11275;52.488;13.462;2022-09-12T09:54:00;18.70;99.90
22212;DHT22;11275;52.488;13.462;2022-09-12T09:56:36;18.80;99.90
22212;DHT22;11275;52.488;13.462;2022-09-12T09:59:32;19.00;99.90
22212;DHT22;11275;52.488;13.462;2022-09-12T10:02:21;19.00;99.90
22212;DHT22;11275;52.488;13.462;2022-09-12T10:04:58;18.90;99.90
22212;DHT22;11275;52.488;13.462;2022-09-12T10:07:27;19.10;99.90
22212;DHT22;11275;52.488;13.462;2022-09-12T10:10:15;19.10;99.90
22212;DHT22;11275;52.488;13.462;2022-09-12T10:12:45;19.10;99.90
22212;DHT22;11275;52.488;13.462;2022-09-12T10:15:22;19.20;99.90
22212;DHT22;11275;52.488;13.462;2022-09-12T10:17:59;19.30;99.90
22212;DHT22;11275;52.488;13.462;2022-09-12T10:20:49;19.30;99.90
22212;DHT22;11275;52.488;13.462;2022-09-12T10:23:21;19.30;99.90
22212;DHT22;11275;52.488;13.462;2022-09-12T10:25:55;19.20;99.90
22212;DHT22;11275;52.488;13.462;2022-09-12T10:28:31;19.20;99.90
22212;DHT22;11275;52.488;13.462;2022-09-12T10:30:57;19.10;99.90
22212;DHT22;11275;52.488;13.462;2022-09-12T10:33:26;19.00;99.90
22212;DHT22;11275;52.488;13.462;2022-09-12T10:35:53;18.80;99.90
22212;DHT22;11275;52.488;13.462;2022-09-12T10:38:31;18.80;99.90
22212;DHT22;11275;52.488;13.462;2022-09-12T10:41:08;18.80;99.90
22212;DHT22;11275;52.488;13.462;2022-09-12T10:43:40;18.80;99.90
22212;DHT22;11275;52.488;13.462;2022-09-12T10:46:25;18.70;99.90
22212;DHT22;11275;52.488;13.462;2022-09-12T10:49:16;18.80;99.90
22212;DHT22;11275;52.488;13.462;2022-09-12T10:51:49;18.90;99.90
22212;DHT22;11275;52.488;13.462;2022-09-12T10:54:17;18.90;99.90
22212;DHT22;11275;52.488;13.462;2022-09-12T11:00:11;19.10;99.90
22212;DHT22;11275;52.488;13.462;2022-09-12T11:03:14;19.20;99.90
22212;DHT22;11275;52.488;13.462;2022-09-12T11:05:54;19.20;99.90
22212;DHT22;11275;52.488;13.462;2022-09-12T11:08:39;19.20;99.90
22212;DHT22;11275;52.488;13.462;2022-09-12T11:11:38;19.30;99.90
22212;DHT22;11275;52.488;13.462;2022-09-12T11:17:54;19.40;99.90
22212;DHT22;11275;52.488;13.462;2022-09-12T11:26:29;19.60;99.90
22212;DHT22;11275;52.488;13.462;2022-09-12T11:43:08;20.40;99.90
22212;DHT22;11275;52.488;13.462;2022-09-12T11:48:58;20.30;99.90
22212;DHT22;11275;52.488;13.462;2022-09-12T11:51:34;20.50;99.90
22212;DHT22;11275;52.488;13.462;2022-09-12T12:00:15;20.60;99.90
22212;DHT22;11275;52.488;13.462;2022-09-12T12:06:01;20.80;99.90
22212;DHT22;11275;52.488;13.462;2022-09-12T12:08:30;20.90;99.90
22212;DHT22;11275;52.488;13.462;2022-09-12T12:10:59;20.90;99.90
22212;DHT22;11275;52.488;13.462;2022-09-12T12:13:29;20.90;99.90
22212;DHT22;11275;52.488;13.462;2022-09-12T12:16:01;20.80;99.90
22212;DHT22;11275;52.488;13.462;2022-09-12T12:18:30;20.80;99.90
22212;DHT22;11275;52.488;13.462;2022-09-12T12:24:01;20.80;99.90
22212;DHT22;11275;52.488;13.462;2022-09-12T12:34:37;20.80;99.90
22212;DHT22;11275;52.488;13.462;2022-09-12T12:44:55;20.90;99.90
22212;DHT22;11275;52.488;13.462;2022-09-12T12:47:23;20.90;99.90
22212;DHT22;11275;52.488;13.462;2022-09-12T12:50:19;21.00;99.90
22212;DHT22;11275;52.488;13.462;2022-09-12T12:53:05;20.90;99.90
22212;DHT22;11275;52.488;13.462;2022-09-12T13:01:17;20.90;99.90
22212;DHT22;11275;52.488;13.462;2022-09-12T13:03:59;20.90;99.90
22212;DHT22;11275;52.488;13.462;2022-09-12T13:06:40;21.00;99.90
22212;DHT22;11275;52.488;13.462;2022-09-12T13:09:36;20.80;99.90
22212;DHT22;11275;52.488;13.462;2022-09-12T13:12:17;20.80;99.90
22212;DHT22;11275;52.488;13.462;2022-09-12T13:14:48;20.80;99.90
22212;DHT22;11275;52.488;13.462;2022-09-12T13:17:38;20.90;99.90
22212;DHT22;11275;52.488;13.462;2022-09-12T13:22:46;21.00;99.90
22212;DHT22;11275;52.488;13.462;2022-09-12T13:30:32;21.10;99.90
22212;DHT22;11275;52.488;13.462;2022-09-12T13:33:03;21.20;99.90
22212;DHT22;11275;52.488;13.462;2022-09-12T13:44:01;21.50;99.90
22212;DHT22;11275;52.488;13.462;2022-09-12T13:46:31;21.60;99.90
22212;DHT22;11275;52.488;13.462;2022-09-12T13:48:59;21.60;99.90
22212;DHT22;11275;52.488;13.462;2022-09-12T13:51:29;21.60;99.90
22212;DHT22;11275;52.488;13.462;2022-09-12T13:53:58;21.60;99.90
22212;DHT22;11275;52.488;13.462;2022-09-12T13:56:26;21.60;99.90
22212;DHT22;11275;52.488;13.462;2022-09-12T13:59:00;21.60;99.90
22212;DHT22;11275;52.488;13.462;2022-09-12T14:01:44;21.70;99.90
22212;DHT22;11275;52.488;13.462;2022-09-12T14:04:25;21.70;99.90
22212;DHT22;11275;52.488;13.462;2022-09-12T14:07:21;21.70;99.90
22212;DHT22;11275;52.488;13.462;2022-09-12T14:09:55;21.70;99.90
22212;DHT22;11275;52.488;13.462;2022-09-12T14:12:30;21.70;99.90
22212;DHT22;11275;52.488;13.462;2022-09-12T14:14:57;21.70;99.90
22212;DHT22;11275;52.488;13.462;2022-09-12T14:17:26;21.70;99.90
22212;DHT22;11275;52.488;13.462;2022-09-12T14:19:54;21.80;99.90
22212;DHT22;11275;52.488;13.462;2022-09-12T14:22:24;21.80;99.90
22212;DHT22;11275;52.488;13.462;2022-09-12T14:24:51;21.80;99.90
22212;DHT22;11275;52.488;13.462;2022-09-12T14:27:23;21.80;99.90
22212;DHT22;11275;52.488;13.462;2022-09-12T14:30:02;21.80;99.90
22212;DHT22;11275;52.488;13.462;2022-09-12T14:32:31;21.90;99.90
22212;DHT22;11275;52.488;13.462;2022-09-12T14:37:36;21.90;99.70
22212;DHT22;11275;52.488;13.462;2022-09-12T14:40:03;21.80;99.60
22212;DHT22;11275;52.488;13.462;2022-09-12T14:42:40;21.80;99.50
22212;DHT22;11275;52.488;13.462;2022-09-12T14:45:24;21.80;99.60
22212;DHT22;11275;52.488;13.462;2022-09-12T14:47:52;21.80;99.50
22212;DHT22;11275;52.488;13.462;2022-09-12T14:50:22;21.80;99.70
22212;DHT22;11275;52.488;13.462;2022-09-12T14:55:50;21.90;99.40
22212;DHT22;11275;52.488;13.462;2022-09-12T15:00:53;21.80;99.30
22212;DHT22;11275;52.488;13.462;2022-09-12T15:03:25;21.80;99.30
22212;DHT22;11275;52.488;13.462;2022-09-12T15:05:51;21.70;99.30
22212;DHT22;11275;52.488;13.462;2022-09-12T15:08:17;21.70;99.50
22212;DHT22;11275;52.488;13.462;2022-09-12T15:10:43;21.70;99.60
22212;DHT22;11275;52.488;13.462;2022-09-12T15:13:19;21.70;99.60
22212;DHT22;11275;52.488;13.462;2022-09-12T15:15:50;21.70;99.30
22212;DHT22;11275;52.488;13.462;2022-09-12T15:18:17;21.70;99.40
22212;DHT22;11275;52.488;13.462;2022-09-12T15:20:45;21.70;99.20
22212;DHT22;11275;52.488;13.462;2022-09-12T15:23:27;21.70;99.10
22212;DHT22;11275;52.488;13.462;2022-09-12T15:25:54;21.60;98.40
22212;DHT22;11275;52.488;13.462;2022-09-12T15:28:21;21.50;98.90
22212;DHT22;11275;52.488;13.462;2022-09-12T15:30:48;21.50;98.80
22212;DHT22;11275;52.488;13.462;2022-09-12T15:33:15;21.50;99.10
22212;DHT22;11275;52.488;13.462;2022-09-12T15:35:41;21.50;99.20
22212;DHT22;11275;52.488;13.462;2022-09-12T15:38:07;21.50;99.30
22212;DHT22;11275;52.488;13.462;2022-09-12T15:40:33;21.50;99.50
22212;DHT22;11275;52.488;13.462;2022-09-12T15:42:58;21.50;99.50
22212;DHT22;11275;52.488;13.462;2022-09-12T15:45:30;21.50;99.50
22212;DHT22;11275;52.488;13.462;2022-09-12T15:47:56;21.50;99.30
22212;DHT22;11275;52.488;13.462;2022-09-12T15:50:23;21.50;99.30
22212;DHT22;11275;52.488;13.462;2022-09-12T15:52:48;21.50;99.90
22212;DHT22;11275;52.488;13.462;2022-09-12T15:55:18;21.50;99.90
22212;DHT22;11275;52.488;13.462;2022-09-12T15:57:44;21.40;99.90
22212;DHT22;11275;52.488;13.462;2022-09-12T16:00:11;21.40;99.90
22212;DHT22;11275;52.488;13.462;2022-09-12T16:02:37;21.40;99.90
22212;DHT22;11275;52.488;13.462;2022-09-12T16:05:04;21.40;99.90
22212;DHT22;11275;52.488;13.462;2022-09-12T16:07:30;21.20;99.90
22212;DHT22;11275;52.488;13.462;2022-09-12T16:09:56;21.10;99.90
22212;DHT22;11275;52.488;13.462;2022-09-12T16:12:21;21.10;99.90
22212;DHT22;11275;52.488;13.462;2022-09-12T16:14:47;20.90;99.90
22212;DHT22;11275;52.488;13.462;2022-09-12T16:17:12;20.90;99.90
22212;DHT22;11275;52.488;13.462;2022-09-12T16:19:38;20.80;99.90
22212;DHT22;11275;52.488;13.462;2022-09-12T16:22:03;20.70;99.90
22212;DHT22;11275;52.488;13.462;2022-09-12T16:24:29;20.60;99.90
22212;DHT22;11275;52.488;13.462;2022-09-12T16:26:55;20.60;99.90
22212;DHT22;11275;52.488;13.462;2022-09-12T16:29:21;20.50;99.90
22212;DHT22;11275;52.488;13.462;2022-09-12T16:31:46;20.50;99.90
22212;DHT22;11275;52.488;13.462;2022-09-12T16:34:12;20.40;99.90
22212;DHT22;11275;52.488;13.462;2022-09-12T16:36:38;20.40;99.90
22212;DHT22;11275;52.488;13.462;2022-09-12T16:39:03;20.30;99.90
22212;DHT22;11275;52.488;13.462;2022-09-12T16:41:30;20.30;99.90
22212;DHT22;11275;52.488;13.462;2022-09-12T16:43:56;20.30;99.90
22212;DHT22;11275;52.488;13.462;2022-09-12T16:46:24;20.30;99.90
22212;DHT22;11275;52.488;13.462;2022-09-12T16:48:52;20.20;99.90
22212;DHT22;11275;52.488;13.462;2022-09-12T16:51:21;20.20;99.90
22212;DHT22;11275;52.488;13.462;2022-09-12T16:53:47;20.20;99.90
22212;DHT22;11275;52.488;13.462;2022-09-12T16:56:13;20.20;99.90
22212;DHT22;11275;52.488;13.462;2022-09-12T16:58:40;20.10;99.90
22212;DHT22;11275;52.488;13.462;2022-09-12T17:01:09;20.00;99.90
22212;DHT22;11275;52.488;13.462;2022-09-12T17:03:35;20.00;99.90
22212;DHT22;11275;52.488;13.462;2022-09-12T17:06:02;20.00;99.90
22212;DHT22;11275;52.488;13.462;2022-09-12T17:08:29;19.90;99.90
22212;DHT22;11275;52.488;13.462;2022-09-12T17:11:03;19.80;99.90
22212;DHT22;11275;52.488;13.462;2022-09-12T17:13:29;19.80;99.90
22212;DHT22;11275;52.488;13.462;2022-09-12T17:15:55;19.80;99.90
22212;DHT22;11275;52.488;13.462;2022-09-12T17:18:21;19.80;99.90
22212;DHT22;11275;52.488;13.462;2022-09-12T17:20:47;19.80;99.90
22212;DHT22;11275;52.488;13.462;2022-09-12T17:23:13;19.80;99.90
22212;DHT22;11275;52.488;13.462;2022-09-12T17:25:39;19.70;99.90
22212;DHT22;11275;52.488;13.462;2022-09-12T17:28:04;19.70;99.90
22212;DHT22;11275;52.488;13.462;2022-09-12T17:30:34;19.70;99.90
22212;DHT22;11275;52.488;13.462;2022-09-12T17:33:00;19.60;99.90
22212;DHT22;11275;52.488;13.462;2022-09-12T17:35:26;19.50;99.90
22212;DHT22;11275;52.488;13.462;2022-09-12T17:37:52;19.40;99.90
22212;DHT22;11275;52.488;13.462;2022-09-12T17:40:18;19.30;99.90
22212;DHT22;11275;52.488;13.462;2022-09-12T17:42:43;19.20;99.90
22212;DHT22;11275;52.488;13.462;2022-09-12T17:45:10;19.30;99.90
22212;DHT22;11275;52.488;13.462;2022-09-12T17:47:50;19.30;99.90
22212;DHT22;11275;52.488;13.462;2022-09-12T17:50:17;19.30;99.90
22212;DHT22;11275;52.488;13.462;2022-09-12T17:52:46;19.30;99.90
22212;DHT22;11275;52.488;13.462;2022-09-12T17:55:20;19.20;99.90
22212;DHT22;11275;52.488;13.462;2022-09-12T17:57:54;19.20;99.90
22212;DHT22;11275;52.488;13.462;2022-09-12T18:00:26;19.10;99.90
22212;DHT22;11275;52.488;13.462;2022-09-12T18:03:20;19.10;99.90
22212;DHT22;11275;52.488;13.462;2022-09-12T18:05:53;19.10;99.90
22212;DHT22;11275;52.488;13.462;2022-09-12T18:08:23;19.10;99.90
22212;DHT22;11275;52.488;13.462;2022-09-12T18:10:50;19.00;99.90
22212;DHT22;11275;52.488;13.462;2022-09-12T18:13:22;19.00;99.90
22212;DHT22;11275;52.488;13.462;2022-09-12T18:15:51;19.00;99.90
22212;DHT22;11275;52.488;13.462;2022-09-12T18:18:17;18.90;99.90
22212;DHT22;11275;52.488;13.462;2022-09-12T18:20:51;18.90;99.90